sensor_id;sensor_type;location;lat;lon;timestamp;P1;durP1;ratioP1;P2;durP2;ratioP2
19664;SDS011;9980;51.020;7.772;2023-07-31T00:01:55;4.00;;;2.87;;
19664;SDS011;9980;51.020;7.772;2023-07-31T00:04:22;3.00;;;2.70;;
19664;SDS011;9980;51.020;7.772;2023-07-31T00:06:49;3.57;;;2.90;;
19664;SDS011;9980;51.020;7.772;2023-07-31T00:09:16;2.80;;;2.60;;
19664;SDS011;9980;51.020;7.772;2023-07-31T00:11:43;3.57;;;2.87;;
19664;SDS011;9980;51.020;7.772;2023-07-31T00:14:09;4.50;;;2.60;;
19664;SDS011;9980;51.020;7.772;2023-07-31T00:16:36;10.30;;;3.00;;
19664;SDS011;9980;51.020;7.772;2023-07-31T00:19:04;4.33;;;3.00;;
19664;SDS011;9980;51.020;7.772;2023-07-31T00:21:31;2.93;;;2.63;;
19664;SDS011;9980;51.020;7.772;2023-07-31T00:23:58;3.50;;;2.87;;
19664;SDS011;9980;51.020;7.772;2023-07-31T00:26:24;5.50;;;3.03;;
19664;SDS011;9980;51.020;7.772;2023-07-31T00:28:51;3.23;;;2.90;;
19664;SDS011;9980;51.020;7.772;2023-07-31T00:31:18;4.83;;;3.10;;
19664;SDS011;9980;51.020;7.772;2023-07-31T00:33:47;6.53;;;2.80;;
19664;SDS011;9980;51.020;7.772;2023-07-31T00:36:13;3.50;;;2.90;;
19664;SDS011;9980;51.020;7.772;2023-07-31T00:38:41;5.03;;;2.90;;
19664;SDS011;9980;51.020;7.772;2023-07-31T00:41:08;3.73;;;2.73;;
19664;SDS011;9980;51.020;7.772;2023-07-31T00:43:35;3.57;;;2.87;;
19664;SDS011;9980;51.020;7.772;2023-07-31T00:46:02;4.37;;;3.13;;
19664;SDS011;9980;51.020;7.772;2023-07-31T00:48:29;4.07;;;2.50;;
19664;SDS011;9980;51.020;7.772;2023-07-31T00:50:57;5.63;;;3.30;;
19664;SDS011;9980;51.020;7.772;2023-07-31T00:53:24;4.93;;;3.13;;
19664;SDS011;9980;51.020;7.772;2023-07-31T00:55:51;3.93;;;2.90;;
19664;SDS011;9980;51.020;7.772;2023-07-31T00:58:19;4.50;;;2.90;;
19664;SDS011;9980;51.020;7.772;2023-07-31T01:00:46;3.17;;;2.47;;
19664;SDS011;9980;51.020;7.772;2023-07-31T01:03:13;7.70;;;3.13;;
19664;SDS011;9980;51.020;7.772;2023-07-31T01:11:30;3.47;;;2.60;;
19664;SDS011;9980;51.020;7.772;2023-07-31T01:14:04;4.77;;;3.50;;
19664;SDS011;9980;51.020;7.772;2023-07-31T01:16:31;6.10;;;3.53;;
19664;SDS011;9980;51.020;7.772;2023-07-31T01:18:58;7.30;;;3.33;;
19664;SDS011;9980;51.020;7.772;2023-07-31T01:27:17;6.30;;;3.40;;
19664;SDS011;9980;51.020;7.772;2023-07-31T01:30:14;3.67;;;3.20;;
19664;SDS011;9980;51.020;7.772;2023-07-31T01:32:47;13.73;;;3.67;;
19664;SDS011;9980;51.020;7.772;2023-07-31T01:35:16;4.00;;;3.27;;
19664;SDS011;9980;51.020;7.772;2023-07-31T01:37:43;5.83;;;3.50;;
19664;SDS011;9980;51.020;7.772;2023-07-31T01:40:11;5.10;;;2.83;;
19664;SDS011;9980;51.020;7.772;2023-07-31T01:42:38;4.03;;;3.13;;
19664;SDS011;9980;51.020;7.772;2023-07-31T01:45:05;3.37;;;3.00;;
19664;SDS011;9980;51.020;7.772;2023-07-31T01:47:32;3.37;;;3.00;;
19664;SDS011;9980;51.020;7.772;2023-07-31T01:49:59;5.00;;;2.80;;
19664;SDS011;9980;51.020;7.772;2023-07-31T01:52:26;6.37;;;2.97;;
19664;SDS011;9980;51.020;7.772;2023-07-31T01:54:54;3.03;;;2.47;;
19664;SDS011;9980;51.020;7.772;2023-07-31T01:57:21;3.73;;;2.77;;
19664;SDS011;9980;51.020;7.772;2023-07-31T01:59:48;5.03;;;2.83;;
19664;SDS011;9980;51.020;7.772;2023-07-31T02:02:15;4.40;;;2.53;;
19664;SDS011;9980;51.020;7.772;2023-07-31T02:04:43;6.57;;;2.77;;
19664;SDS011;9980;51.020;7.772;2023-07-31T02:07:09;4.30;;;3.00;;
19664;SDS011;9980;51.020;7.772;2023-07-31T02:09:36;6.27;;;3.20;;
19664;SDS011;9980;51.020;7.772;2023-07-31T02:12:03;8.27;;;2.90;;
19664;SDS011;9980;51.020;7.772;2023-07-31T02:14:31;5.17;;;2.63;;
19664;SDS011;9980;51.020;7.772;2023-07-31T02:16:58;6.40;;;3.23;;
19664;SDS011;9980;51.020;7.772;2023-07-31T02:19:25;5.23;;;2.97;;
19664;SDS011;9980;51.020;7.772;2023-07-31T02:22:21;5.03;;;2.40;;
19664;SDS011;9980;51.020;7.772;2023-07-31T02:24:48;8.20;;;3.13;;
19664;SDS011;9980;51.020;7.772;2023-07-31T02:27:15;6.80;;;3.00;;
19664;SDS011;9980;51.020;7.772;2023-07-31T02:29:43;3.93;;;2.67;;
19664;SDS011;9980;51.020;7.772;2023-07-31T02:32:11;4.57;;;2.93;;
19664;SDS011;9980;51.020;7.772;2023-07-31T02:34:38;7.07;;;2.90;;
19664;SDS011;9980;51.020;7.772;2023-07-31T02:37:06;4.40;;;2.77;;
19664;SDS011;9980;51.020;7.772;2023-07-31T02:39:33;5.87;;;2.93;;
19664;SDS011;9980;51.020;7.772;2023-07-31T02:41:59;3.87;;;2.90;;
19664;SDS011;9980;51.020;7.772;2023-07-31T02:44:27;6.00;;;2.33;;
19664;SDS011;9980;51.020;7.772;2023-07-31T02:46:55;6.70;;;3.10;;
19664;SDS011;9980;51.020;7.772;2023-07-31T02:49:22;3.17;;;2.43;;
19664;SDS011;9980;51.020;7.772;2023-07-31T02:51:48;4.30;;;2.80;;
19664;SDS011;9980;51.020;7.772;2023-07-31T02:54:15;3.27;;;2.30;;
19664;SDS011;9980;51.020;7.772;2023-07-31T02:56:42;7.30;;;3.40;;
19664;SDS011;9980;51.020;7.772;2023-07-31T02:59:10;4.67;;;2.93;;
19664;SDS011;9980;51.020;7.772;2023-07-31T03:01:36;6.20;;;3.20;;
19664;SDS011;9980;51.020;7.772;2023-07-31T03:04:04;4.50;;;3.00;;
19664;SDS011;9980;51.020;7.772;2023-07-31T03:06:31;5.40;;;3.00;;
19664;SDS011;9980;51.020;7.772;2023-07-31T03:08:59;3.07;;;2.77;;
19664;SDS011;9980;51.020;7.772;2023-07-31T03:11:26;3.20;;;2.50;;
19664;SDS011;9980;51.020;7.772;2023-07-31T03:13:55;10.57;;;3.37;;
19664;SDS011;9980;51.020;7.772;2023-07-31T03:16:22;5.03;;;2.83;;
19664;SDS011;9980;51.020;7.772;2023-07-31T03:18:49;4.03;;;2.60;;
19664;SDS011;9980;51.020;7.772;2023-07-31T03:21:16;3.93;;;2.40;;
19664;SDS011;9980;51.020;7.772;2023-07-31T03:23:43;3.50;;;2.47;;
19664;SDS011;9980;51.020;7.772;2023-07-31T03:26:10;5.03;;;2.83;;
19664;SDS011;9980;51.020;7.772;2023-07-31T03:28:36;5.27;;;2.50;;
19664;SDS011;9980;51.020;7.772;2023-07-31T03:31:03;3.33;;;2.40;;
19664;SDS011;9980;51.020;7.772;2023-07-31T03:33:30;2.77;;;2.30;;
19664;SDS011;9980;51.020;7.772;2023-07-31T03:35:57;4.47;;;2.17;;
19664;SDS011;9980;51.020;7.772;2023-07-31T03:38:24;6.47;;;3.07;;
19664;SDS011;9980;51.020;7.772;2023-07-31T03:40:52;4.57;;;2.50;;
19664;SDS011;9980;51.020;7.772;2023-07-31T03:43:19;6.43;;;2.80;;
19664;SDS011;9980;51.020;7.772;2023-07-31T03:45:48;4.20;;;2.77;;
19664;SDS011;9980;51.020;7.772;2023-07-31T03:48:15;5.33;;;2.90;;
19664;SDS011;9980;51.020;7.772;2023-07-31T03:50:43;4.43;;;2.43;;
19664;SDS011;9980;51.020;7.772;2023-07-31T03:53:10;5.00;;;3.00;;
19664;SDS011;9980;51.020;7.772;2023-07-31T03:55:37;4.90;;;2.90;;
19664;SDS011;9980;51.020;7.772;2023-07-31T03:58:03;3.87;;;2.53;;
19664;SDS011;9980;51.020;7.772;2023-07-31T04:00:30;2.73;;;2.17;;
19664;SDS011;9980;51.020;7.772;2023-07-31T04:02:57;2.80;;;2.40;;
19664;SDS011;9980;51.020;7.772;2023-07-31T04:05:24;4.00;;;2.83;;
19664;SDS011;9980;51.020;7.772;2023-07-31T04:07:51;3.47;;;2.50;;
19664;SDS011;9980;51.020;7.772;2023-07-31T04:10:18;5.97;;;3.00;;
19664;SDS011;9980;51.020;7.772;2023-07-31T04:12:45;3.90;;;2.87;;
19664;SDS011;9980;51.020;7.772;2023-07-31T04:15:12;4.47;;;2.80;;
19664;SDS011;9980;51.020;7.772;2023-07-31T04:17:39;3.37;;;2.80;;
19664;SDS011;9980;51.020;7.772;2023-07-31T04:20:06;4.30;;;2.67;;
19664;SDS011;9980;51.020;7.772;2023-07-31T04:22:33;3.60;;;2.27;;
19664;SDS011;9980;51.020;7.772;2023-07-31T04:25:00;5.10;;;2.70;;
19664;SDS011;9980;51.020;7.772;2023-07-31T04:27:27;3.33;;;2.77;;
19664;SDS011;9980;51.020;7.772;2023-07-31T04:29:54;4.17;;;2.83;;
19664;SDS011;9980;51.020;7.772;2023-07-31T04:32:20;3.57;;;2.90;;
19664;SDS011;9980;51.020;7.772;2023-07-31T04:34:47;3.00;;;2.60;;
19664;SDS011;9980;51.020;7.772;2023-07-31T04:37:14;3.33;;;2.83;;
19664;SDS011;9980;51.020;7.772;2023-07-31T04:39:41;3.37;;;2.47;;
19664;SDS011;9980;51.020;7.772;2023-07-31T04:42:08;3.57;;;2.70;;
19664;SDS011;9980;51.020;7.772;2023-07-31T04:44:35;3.90;;;2.93;;
19664;SDS011;9980;51.020;7.772;2023-07-31T04:47:02;5.10;;;2.83;;
19664;SDS011;9980;51.020;7.772;2023-07-31T04:49:29;2.87;;;2.40;;
19664;SDS011;9980;51.020;7.772;2023-07-31T04:51:58;3.43;;;2.77;;
19664;SDS011;9980;51.020;7.772;2023-07-31T04:54:25;3.53;;;2.90;;
19664;SDS011;9980;51.020;7.772;2023-07-31T04:56:53;3.83;;;2.80;;
19664;SDS011;9980;51.020;7.772;2023-07-31T04:59:20;3.20;;;2.90;;
19664;SDS011;9980;51.020;7.772;2023-07-31T05:01:46;3.10;;;2.70;;
19664;SDS011;9980;51.020;7.772;2023-07-31T05:04:14;4.80;;;2.87;;
19664;SDS011;9980;51.020;7.772;2023-07-31T05:06:41;5.03;;;3.07;;
19664;SDS011;9980;51.020;7.772;2023-07-31T05:09:08;6.23;;;3.07;;
19664;SDS011;9980;51.020;7.772;2023-07-31T05:11:35;4.93;;;3.40;;
19664;SDS011;9980;51.020;7.772;2023-07-31T05:14:02;4.13;;;3.00;;
19664;SDS011;9980;51.020;7.772;2023-07-31T05:16:29;3.87;;;3.10;;
19664;SDS011;9980;51.020;7.772;2023-07-31T05:18:56;5.33;;;2.90;;
19664;SDS011;9980;51.020;7.772;2023-07-31T05:21:23;3.67;;;3.13;;
19664;SDS011;9980;51.020;7.772;2023-07-31T05:23:50;5.63;;;3.17;;
19664;SDS011;9980;51.020;7.772;2023-07-31T05:26:17;5.33;;;3.13;;
19664;SDS011;9980;51.020;7.772;2023-07-31T05:28:44;4.37;;;3.27;;
19664;SDS011;9980;51.020;7.772;2023-07-31T05:31:14;7.40;;;3.40;;
19664;SDS011;9980;51.020;7.772;2023-07-31T05:33:41;6.20;;;3.73;;
19664;SDS011;9980;51.020;7.772;2023-07-31T05:36:07;7.13;;;3.13;;
19664;SDS011;9980;51.020;7.772;2023-07-31T05:38:35;4.27;;;3.10;;
19664;SDS011;9980;51.020;7.772;2023-07-31T05:41:02;4.60;;;2.93;;
19664;SDS011;9980;51.020;7.772;2023-07-31T05:43:29;5.60;;;3.37;;
19664;SDS011;9980;51.020;7.772;2023-07-31T05:45:56;4.97;;;3.13;;
19664;SDS011;9980;51.020;7.772;2023-07-31T05:48:23;3.70;;;2.83;;
19664;SDS011;9980;51.020;7.772;2023-07-31T05:50:50;3.67;;;3.10;;
19664;SDS011;9980;51.020;7.772;2023-07-31T05:53:17;4.60;;;2.70;;
19664;SDS011;9980;51.020;7.772;2023-07-31T05:55:44;3.23;;;2.90;;
19664;SDS011;9980;51.020;7.772;2023-07-31T05:58:11;4.03;;;3.13;;
19664;SDS011;9980;51.020;7.772;2023-07-31T06:00:37;5.83;;;3.30;;
19664;SDS011;9980;51.020;7.772;2023-07-31T06:03:04;5.73;;;3.17;;
19664;SDS011;9980;51.020;7.772;2023-07-31T06:05:31;4.73;;;3.00;;
19664;SDS011;9980;51.020;7.772;2023-07-31T06:07:58;5.43;;;2.90;;
19664;SDS011;9980;51.020;7.772;2023-07-31T06:10:25;4.03;;;2.90;;
19664;SDS011;9980;51.020;7.772;2023-07-31T06:12:53;4.43;;;3.57;;
19664;SDS011;9980;51.020;7.772;2023-07-31T06:15:20;6.03;;;3.10;;
19664;SDS011;9980;51.020;7.772;2023-07-31T06:17:47;4.50;;;3.00;;
19664;SDS011;9980;51.020;7.772;2023-07-31T06:20:14;3.83;;;3.20;;
19664;SDS011;9980;51.020;7.772;2023-07-31T06:22:41;4.27;;;3.00;;
19664;SDS011;9980;51.020;7.772;2023-07-31T06:25:08;7.60;;;3.13;;
19664;SDS011;9980;51.020;7.772;2023-07-31T06:27:40;6.60;;;3.20;;
19664;SDS011;9980;51.020;7.772;2023-07-31T06:30:07;3.33;;;2.70;;
19664;SDS011;9980;51.020;7.772;2023-07-31T06:32:34;4.30;;;3.10;;
19664;SDS011;9980;51.020;7.772;2023-07-31T06:35:02;5.37;;;2.83;;
19664;SDS011;9980;51.020;7.772;2023-07-31T06:37:29;9.17;;;3.27;;
19664;SDS011;9980;51.020;7.772;2023-07-31T06:39:56;4.97;;;2.90;;
19664;SDS011;9980;51.020;7.772;2023-07-31T06:42:23;6.00;;;3.10;;
19664;SDS011;9980;51.020;7.772;2023-07-31T06:44:50;4.77;;;3.07;;
19664;SDS011;9980;51.020;7.772;2023-07-31T06:47:17;5.90;;;3.07;;
19664;SDS011;9980;51.020;7.772;2023-07-31T06:49:44;4.40;;;3.00;;
19664;SDS011;9980;51.020;7.772;2023-07-31T06:52:11;4.20;;;3.07;;
19664;SDS011;9980;51.020;7.772;2023-07-31T06:54:38;5.57;;;2.77;;
19664;SDS011;9980;51.020;7.772;2023-07-31T06:57:05;4.30;;;2.97;;
19664;SDS011;9980;51.020;7.772;2023-07-31T06:59:32;4.00;;;2.93;;
19664;SDS011;9980;51.020;7.772;2023-07-31T07:01:59;4.17;;;2.90;;
19664;SDS011;9980;51.020;7.772;2023-07-31T07:04:26;6.37;;;3.13;;
19664;SDS011;9980;51.020;7.772;2023-07-31T07:06:53;4.37;;;3.23;;
19664;SDS011;9980;51.020;7.772;2023-07-31T07:09:19;6.00;;;2.77;;
19664;SDS011;9980;51.020;7.772;2023-07-31T07:11:46;3.77;;;2.57;;
19664;SDS011;9980;51.020;7.772;2023-07-31T07:14:13;6.27;;;3.10;;
19664;SDS011;9980;51.020;7.772;2023-07-31T07:16:40;3.70;;;2.83;;
19664;SDS011;9980;51.020;7.772;2023-07-31T07:19:08;3.20;;;2.90;;
19664;SDS011;9980;51.020;7.772;2023-07-31T07:21:35;5.57;;;3.33;;
19664;SDS011;9980;51.020;7.772;2023-07-31T07:24:03;3.90;;;3.00;;
19664;SDS011;9980;51.020;7.772;2023-07-31T07:26:30;4.27;;;3.10;;
19664;SDS011;9980;51.020;7.772;2023-07-31T07:28:57;4.97;;;3.10;;
19664;SDS011;9980;51.020;7.772;2023-07-31T07:31:27;4.23;;;3.03;;
19664;SDS011;9980;51.020;7.772;2023-07-31T07:33:55;3.83;;;3.20;;
19664;SDS011;9980;51.020;7.772;2023-07-31T07:36:23;6.80;;;3.37;;
19664;SDS011;9980;51.020;7.772;2023-07-31T07:38:50;6.17;;;3.07;;
19664;SDS011;9980;51.020;7.772;2023-07-31T07:41:17;6.53;;;3.40;;
19664;SDS011;9980;51.020;7.772;2023-07-31T07:43:44;7.00;;;3.23;;
19664;SDS011;9980;51.020;7.772;2023-07-31T07:46:11;4.77;;;3.43;;
19664;SDS011;9980;51.020;7.772;2023-07-31T07:48:39;3.40;;;3.10;;
19664;SDS011;9980;51.020;7.772;2023-07-31T07:51:06;4.10;;;3.13;;
19664;SDS011;9980;51.020;7.772;2023-07-31T07:53:33;4.67;;;3.20;;
19664;SDS011;9980;51.020;7.772;2023-07-31T07:56:03;6.53;;;3.13;;
19664;SDS011;9980;51.020;7.772;2023-07-31T07:58:31;4.17;;;2.83;;
19664;SDS011;9980;51.020;7.772;2023-07-31T08:00:58;5.60;;;3.20;;
19664;SDS011;9980;51.020;7.772;2023-07-31T08:03:25;4.80;;;2.83;;
19664;SDS011;9980;51.020;7.772;2023-07-31T08:06:01;3.97;;;3.30;;
19664;SDS011;9980;51.020;7.772;2023-07-31T08:08:28;5.30;;;3.10;;
19664;SDS011;9980;51.020;7.772;2023-07-31T08:10:55;3.90;;;2.90;;
19664;SDS011;9980;51.020;7.772;2023-07-31T08:13:22;5.83;;;3.07;;
19664;SDS011;9980;51.020;7.772;2023-07-31T08:15:49;3.53;;;3.03;;
19664;SDS011;9980;51.020;7.772;2023-07-31T08:18:16;4.60;;;3.10;;
19664;SDS011;9980;51.020;7.772;2023-07-31T08:20:44;3.73;;;2.80;;
19664;SDS011;9980;51.020;7.772;2023-07-31T08:23:11;4.33;;;3.30;;
19664;SDS011;9980;51.020;7.772;2023-07-31T08:25:38;4.30;;;3.70;;
19664;SDS011;9980;51.020;7.772;2023-07-31T08:28:06;3.50;;;3.10;;
19664;SDS011;9980;51.020;7.772;2023-07-31T08:30:34;3.70;;;3.27;;
19664;SDS011;9980;51.020;7.772;2023-07-31T08:33:01;3.57;;;2.93;;
19664;SDS011;9980;51.020;7.772;2023-07-31T08:35:28;3.37;;;2.87;;
19664;SDS011;9980;51.020;7.772;2023-07-31T08:37:55;4.40;;;3.00;;
19664;SDS011;9980;51.020;7.772;2023-07-31T08:40:22;4.27;;;3.27;;
19664;SDS011;9980;51.020;7.772;2023-07-31T08:42:52;4.60;;;2.90;;
19664;SDS011;9980;51.020;7.772;2023-07-31T08:45:22;5.03;;;3.37;;
19664;SDS011;9980;51.020;7.772;2023-07-31T08:47:50;4.07;;;3.00;;
19664;SDS011;9980;51.020;7.772;2023-07-31T08:50:19;3.97;;;3.40;;
19664;SDS011;9980;51.020;7.772;2023-07-31T08:52:48;5.37;;;3.60;;
19664;SDS011;9980;51.020;7.772;2023-07-31T08:55:17;6.33;;;3.03;;
19664;SDS011;9980;51.020;7.772;2023-07-31T08:57:51;5.17;;;3.00;;
19664;SDS011;9980;51.020;7.772;2023-07-31T09:00:19;3.00;;;2.57;;
19664;SDS011;9980;51.020;7.772;2023-07-31T09:02:55;4.13;;;3.03;;
19664;SDS011;9980;51.020;7.772;2023-07-31T09:05:29;4.77;;;3.13;;
19664;SDS011;9980;51.020;7.772;2023-07-31T09:07:57;5.70;;;3.03;;
19664;SDS011;9980;51.020;7.772;2023-07-31T09:10:26;8.20;;;3.00;;
19664;SDS011;9980;51.020;7.772;2023-07-31T09:12:53;3.30;;;2.90;;
19664;SDS011;9980;51.020;7.772;2023-07-31T09:15:22;4.70;;;2.97;;
19664;SDS011;9980;51.020;7.772;2023-07-31T09:18:04;5.17;;;2.87;;
19664;SDS011;9980;51.020;7.772;2023-07-31T09:20:34;4.70;;;3.00;;
19664;SDS011;9980;51.020;7.772;2023-07-31T09:23:06;3.07;;;2.23;;
19664;SDS011;9980;51.020;7.772;2023-07-31T09:25:38;3.77;;;2.43;;
19664;SDS011;9980;51.020;7.772;2023-07-31T09:28:10;3.47;;;2.60;;
19664;SDS011;9980;51.020;7.772;2023-07-31T09:33:18;3.93;;;2.30;;
19664;SDS011;9980;51.020;7.772;2023-07-31T09:35:46;4.20;;;2.57;;
19664;SDS011;9980;51.020;7.772;2023-07-31T09:38:15;2.87;;;2.23;;
19664;SDS011;9980;51.020;7.772;2023-07-31T09:40:46;3.47;;;2.50;;
19664;SDS011;9980;51.020;7.772;2023-07-31T09:43:18;2.60;;;2.20;;
19664;SDS011;9980;51.020;7.772;2023-07-31T09:45:47;4.70;;;2.23;;
19664;SDS011;9980;51.020;7.772;2023-07-31T09:48:22;2.40;;;2.20;;
19664;SDS011;9980;51.020;7.772;2023-07-31T09:50:53;2.87;;;2.20;;
19664;SDS011;9980;51.020;7.772;2023-07-31T09:53:27;3.53;;;2.03;;
19664;SDS011;9980;51.020;7.772;2023-07-31T09:55:58;2.83;;;2.43;;
19664;SDS011;9980;51.020;7.772;2023-07-31T09:58:28;3.27;;;2.63;;
19664;SDS011;9980;51.020;7.772;2023-07-31T10:00:58;3.17;;;2.60;;
19664;SDS011;9980;51.020;7.772;2023-07-31T10:03:30;3.20;;;2.53;;
19664;SDS011;9980;51.020;7.772;2023-07-31T10:05:59;3.83;;;2.40;;
19664;SDS011;9980;51.020;7.772;2023-07-31T10:08:29;3.40;;;2.40;;
19664;SDS011;9980;51.020;7.772;2023-07-31T10:11:01;3.10;;;2.20;;
19664;SDS011;9980;51.020;7.772;2023-07-31T10:13:30;2.70;;;2.00;;
19664;SDS011;9980;51.020;7.772;2023-07-31T10:15:58;3.10;;;2.17;;
19664;SDS011;9980;51.020;7.772;2023-07-31T10:18:27;2.87;;;2.20;;
19664;SDS011;9980;51.020;7.772;2023-07-31T10:20:58;3.37;;;2.43;;
19664;SDS011;9980;51.020;7.772;2023-07-31T10:23:25;2.87;;;2.20;;
19664;SDS011;9980;51.020;7.772;2023-07-31T10:25:53;2.80;;;2.20;;
19664;SDS011;9980;51.020;7.772;2023-07-31T10:28:21;2.57;;;2.37;;
19664;SDS011;9980;51.020;7.772;2023-07-31T10:30:49;3.10;;;2.30;;
19664;SDS011;9980;51.020;7.772;2023-07-31T10:33:17;2.60;;;2.20;;
19664;SDS011;9980;51.020;7.772;2023-07-31T10:35:47;2.30;;;2.10;;
19664;SDS011;9980;51.020;7.772;2023-07-31T10:38:14;2.80;;;2.20;;
19664;SDS011;9980;51.020;7.772;2023-07-31T10:40:42;2.63;;;2.07;;
19664;SDS011;9980;51.020;7.772;2023-07-31T10:43:14;2.07;;;1.77;;
19664;SDS011;9980;51.020;7.772;2023-07-31T10:45:54;2.80;;;2.20;;
19664;SDS011;9980;51.020;7.772;2023-07-31T10:48:21;5.10;;;2.50;;
19664;SDS011;9980;51.020;7.772;2023-07-31T10:50:50;2.43;;;2.20;;
19664;SDS011;9980;51.020;7.772;2023-07-31T10:55:57;3.87;;;2.53;;
19664;SDS011;9980;51.020;7.772;2023-07-31T10:58:29;3.27;;;2.47;;
19664;SDS011;9980;51.020;7.772;2023-07-31T11:00:59;7.20;;;3.27;;
19664;SDS011;9980;51.020;7.772;2023-07-31T11:03:42;4.00;;;2.80;;
19664;SDS011;9980;51.020;7.772;2023-07-31T11:06:16;5.00;;;3.03;;
19664;SDS011;9980;51.020;7.772;2023-07-31T11:08:46;7.03;;;3.13;;
19664;SDS011;9980;51.020;7.772;2023-07-31T11:11:19;2.90;;;2.60;;
19664;SDS011;9980;51.020;7.772;2023-07-31T11:13:48;3.47;;;2.60;;
19664;SDS011;9980;51.020;7.772;2023-07-31T11:16:19;5.87;;;3.03;;
19664;SDS011;9980;51.020;7.772;2023-07-31T11:18:49;5.20;;;2.87;;
19664;SDS011;9980;51.020;7.772;2023-07-31T11:21:18;5.13;;;3.63;;
19664;SDS011;9980;51.020;7.772;2023-07-31T11:23:48;10.47;;;3.20;;
19664;SDS011;9980;51.020;7.772;2023-07-31T11:26:19;5.17;;;3.47;;
19664;SDS011;9980;51.020;7.772;2023-07-31T11:28:47;7.00;;;3.30;;
19664;SDS011;9980;51.020;7.772;2023-07-31T11:31:15;5.40;;;3.27;;
19664;SDS011;9980;51.020;7.772;2023-07-31T11:33:45;7.87;;;3.17;;
19664;SDS011;9980;51.020;7.772;2023-07-31T11:36:16;4.80;;;3.60;;
19664;SDS011;9980;51.020;7.772;2023-07-31T11:38:45;5.13;;;3.63;;
19664;SDS011;9980;51.020;7.772;2023-07-31T11:41:15;4.63;;;3.13;;
19664;SDS011;9980;51.020;7.772;2023-07-31T11:43:45;3.63;;;2.93;;
19664;SDS011;9980;51.020;7.772;2023-07-31T11:46:14;6.83;;;3.43;;
19664;SDS011;9980;51.020;7.772;2023-07-31T11:48:41;4.90;;;3.20;;
19664;SDS011;9980;51.020;7.772;2023-07-31T11:51:09;3.40;;;2.63;;
19664;SDS011;9980;51.020;7.772;2023-07-31T11:56:11;4.80;;;2.97;;
19664;SDS011;9980;51.020;7.772;2023-07-31T11:58:40;3.67;;;2.70;;
19664;SDS011;9980;51.020;7.772;2023-07-31T12:01:11;3.93;;;2.83;;
19664;SDS011;9980;51.020;7.772;2023-07-31T12:03:43;3.37;;;2.93;;
19664;SDS011;9980;51.020;7.772;2023-07-31T12:06:12;3.73;;;2.70;;
19664;SDS011;9980;51.020;7.772;2023-07-31T12:08:39;3.13;;;2.83;;
19664;SDS011;9980;51.020;7.772;2023-07-31T12:11:07;3.20;;;2.80;;
19664;SDS011;9980;51.020;7.772;2023-07-31T12:13:35;3.43;;;2.40;;
19664;SDS011;9980;51.020;7.772;2023-07-31T12:16:03;3.40;;;2.60;;
19664;SDS011;9980;51.020;7.772;2023-07-31T12:18:34;3.50;;;2.43;;
19664;SDS011;9980;51.020;7.772;2023-07-31T12:21:05;3.90;;;2.53;;
19664;SDS011;9980;51.020;7.772;2023-07-31T12:23:35;4.50;;;2.80;;
19664;SDS011;9980;51.020;7.772;2023-07-31T12:26:08;6.57;;;3.10;;
19664;SDS011;9980;51.020;7.772;2023-07-31T12:28:48;2.30;;;2.07;;
19664;SDS011;9980;51.020;7.772;2023-07-31T12:31:17;4.43;;;2.70;;
19664;SDS011;9980;51.020;7.772;2023-07-31T12:33:49;3.30;;;2.40;;
19664;SDS011;9980;51.020;7.772;2023-07-31T12:36:22;4.63;;;2.53;;
19664;SDS011;9980;51.020;7.772;2023-07-31T12:38:55;2.30;;;2.10;;
19664;SDS011;9980;51.020;7.772;2023-07-31T12:41:25;3.07;;;1.70;;
19664;SDS011;9980;51.020;7.772;2023-07-31T12:43:55;3.67;;;1.90;;
19664;SDS011;9980;51.020;7.772;2023-07-31T12:46:25;2.77;;;1.73;;
19664;SDS011;9980;51.020;7.772;2023-07-31T12:48:54;2.17;;;1.63;;
19664;SDS011;9980;51.020;7.772;2023-07-31T12:51:22;2.70;;;1.80;;
19664;SDS011;9980;51.020;7.772;2023-07-31T12:53:49;4.17;;;1.90;;
19664;SDS011;9980;51.020;7.772;2023-07-31T12:56:16;1.93;;;1.63;;
19664;SDS011;9980;51.020;7.772;2023-07-31T12:58:44;4.47;;;2.10;;
19664;SDS011;9980;51.020;7.772;2023-07-31T13:01:11;2.60;;;1.60;;
19664;SDS011;9980;51.020;7.772;2023-07-31T13:03:38;2.23;;;1.50;;
19664;SDS011;9980;51.020;7.772;2023-07-31T13:06:06;1.73;;;1.50;;
19664;SDS011;9980;51.020;7.772;2023-07-31T13:08:33;2.17;;;1.33;;
19664;SDS011;9980;51.020;7.772;2023-07-31T13:11:01;1.90;;;1.40;;
19664;SDS011;9980;51.020;7.772;2023-07-31T13:13:31;2.83;;;1.50;;
19664;SDS011;9980;51.020;7.772;2023-07-31T13:15:58;1.90;;;1.20;;
19664;SDS011;9980;51.020;7.772;2023-07-31T13:18:26;1.20;;;1.10;;
19664;SDS011;9980;51.020;7.772;2023-07-31T13:20:55;1.73;;;1.30;;
19664;SDS011;9980;51.020;7.772;2023-07-31T13:23:23;3.27;;;1.50;;
19664;SDS011;9980;51.020;7.772;2023-07-31T13:25:49;4.07;;;1.27;;
19664;SDS011;9980;51.020;7.772;2023-07-31T13:28:17;2.90;;;1.30;;
19664;SDS011;9980;51.020;7.772;2023-07-31T13:30:44;1.37;;;1.10;;
19664;SDS011;9980;51.020;7.772;2023-07-31T13:33:12;3.30;;;1.30;;
19664;SDS011;9980;51.020;7.772;2023-07-31T13:35:59;1.87;;;1.23;;
19664;SDS011;9980;51.020;7.772;2023-07-31T13:38:26;2.10;;;1.33;;
19664;SDS011;9980;51.020;7.772;2023-07-31T13:40:53;1.70;;;1.30;;
19664;SDS011;9980;51.020;7.772;2023-07-31T13:43:20;2.67;;;1.57;;
19664;SDS011;9980;51.020;7.772;2023-07-31T13:45:47;4.30;;;1.23;;
19664;SDS011;9980;51.020;7.772;2023-07-31T13:48:17;2.97;;;1.70;;
19664;SDS011;9980;51.020;7.772;2023-07-31T13:50:46;3.13;;;1.43;;
19664;SDS011;9980;51.020;7.772;2023-07-31T13:53:19;1.50;;;1.40;;
19664;SDS011;9980;51.020;7.772;2023-07-31T13:55:48;3.27;;;1.87;;
19664;SDS011;9980;51.020;7.772;2023-07-31T13:58:17;1.87;;;1.67;;
19664;SDS011;9980;51.020;7.772;2023-07-31T14:00:44;1.53;;;1.37;;
19664;SDS011;9980;51.020;7.772;2023-07-31T14:03:14;1.70;;;1.47;;
19664;SDS011;9980;51.020;7.772;2023-07-31T14:05:42;1.70;;;1.50;;
19664;SDS011;9980;51.020;7.772;2023-07-31T14:08:12;2.47;;;1.80;;
19664;SDS011;9980;51.020;7.772;2023-07-31T14:10:47;1.80;;;1.47;;
19664;SDS011;9980;51.020;7.772;2023-07-31T14:13:18;2.20;;;1.70;;
19664;SDS011;9980;51.020;7.772;2023-07-31T14:15:45;3.33;;;1.83;;
19664;SDS011;9980;51.020;7.772;2023-07-31T14:18:14;4.17;;;1.70;;
19664;SDS011;9980;51.020;7.772;2023-07-31T14:20:47;3.30;;;1.80;;
19664;SDS011;9980;51.020;7.772;2023-07-31T14:23:15;2.00;;;1.67;;
19664;SDS011;9980;51.020;7.772;2023-07-31T14:25:44;2.57;;;1.73;;
19664;SDS011;9980;51.020;7.772;2023-07-31T14:28:12;1.83;;;1.53;;
19664;SDS011;9980;51.020;7.772;2023-07-31T14:30:40;2.20;;;1.70;;
19664;SDS011;9980;51.020;7.772;2023-07-31T14:33:10;2.25;;;1.98;;
19664;SDS011;9980;51.020;7.772;2023-07-31T14:35:37;2.17;;;1.98;;
19664;SDS011;9980;51.020;7.772;2023-07-31T14:38:04;2.25;;;1.92;;
19664;SDS011;9980;51.020;7.772;2023-07-31T14:40:31;2.53;;;2.30;;
19664;SDS011;9980;51.020;7.772;2023-07-31T14:42:58;2.25;;;2.03;;
19664;SDS011;9980;51.020;7.772;2023-07-31T14:45:25;2.38;;;2.05;;
19664;SDS011;9980;51.020;7.772;2023-07-31T14:47:53;2.28;;;2.08;;
19664;SDS011;9980;51.020;7.772;2023-07-31T14:50:20;3.38;;;2.58;;
19664;SDS011;9980;51.020;7.772;2023-07-31T14:52:48;2.50;;;2.30;;
19664;SDS011;9980;51.020;7.772;2023-07-31T14:55:15;5.25;;;2.58;;
19664;SDS011;9980;51.020;7.772;2023-07-31T14:57:42;3.28;;;2.72;;
19664;SDS011;9980;51.020;7.772;2023-07-31T15:00:09;3.88;;;2.75;;
19664;SDS011;9980;51.020;7.772;2023-07-31T15:02:37;4.88;;;2.80;;
19664;SDS011;9980;51.020;7.772;2023-07-31T15:05:05;4.70;;;2.80;;
19664;SDS011;9980;51.020;7.772;2023-07-31T15:07:33;2.53;;;2.13;;
19664;SDS011;9980;51.020;7.772;2023-07-31T15:10:04;4.07;;;2.80;;
19664;SDS011;9980;51.020;7.772;2023-07-31T15:12:32;2.78;;;2.58;;
19664;SDS011;9980;51.020;7.772;2023-07-31T15:14:59;3.00;;;2.80;;
19664;SDS011;9980;51.020;7.772;2023-07-31T15:17:27;3.50;;;2.83;;
19664;SDS011;9980;51.020;7.772;2023-07-31T15:19:58;2.93;;;2.40;;
19664;SDS011;9980;51.020;7.772;2023-07-31T15:22:29;2.50;;;2.20;;
19664;SDS011;9980;51.020;7.772;2023-07-31T15:24:56;5.53;;;2.10;;
19664;SDS011;9980;51.020;7.772;2023-07-31T15:27:23;2.27;;;2.07;;